createdAt,value
2023-05-04T00:00:12.927Z,1003.31
2023-05-04T00:01:12.916Z,1003.31
2023-05-04T00:02:13.014Z,1003.30
2023-05-04T00:03:12.962Z,1003.29
2023-05-04T00:04:13.053Z,1003.29
2023-05-04T00:05:12.982Z,1003.29
2023-05-04T00:06:12.902Z,1003.28
2023-05-04T00:07:12.895Z,1003.27
2023-05-04T00:08:12.864Z,1003.27
2023-05-04T00:09:12.880Z,1003.26
2023-05-04T00:10:12.876Z,1003.25
2023-05-04T00:11:12.940Z,1003.26
2023-05-04T00:12:12.862Z,1003.26
2023-05-04T00:13:12.916Z,1003.26
2023-05-04T00:14:12.826Z,1003.26
2023-05-04T00:15:12.828Z,1003.25
2023-05-04T00:16:12.845Z,1003.24
2023-05-04T00:17:12.875Z,1003.23
2023-05-04T00:18:12.808Z,1003.23
2023-05-04T00:19:12.808Z,1003.24
2023-05-04T00:20:12.809Z,1003.24
2023-05-04T00:21:12.789Z,1003.22
2023-05-04T00:22:12.755Z,1003.22
2023-05-04T00:23:12.842Z,1003.23
2023-05-04T00:24:12.773Z,1003.22
2023-05-04T00:25:12.796Z,1003.21
2023-05-04T00:26:12.765Z,1003.21
2023-05-04T00:27:12.743Z,1003.20
2023-05-04T00:28:12.737Z,1003.21
2023-05-04T00:29:12.760Z,1003.20
2023-05-04T00:30:12.763Z,1003.19
2023-05-04T00:31:12.737Z,1003.19
2023-05-04T00:32:12.724Z,1003.17
2023-05-04T00:33:12.770Z,1003.17
2023-05-04T00:34:12.694Z,1003.15
2023-05-04T00:35:12.736Z,1003.15
2023-05-04T00:36:12.694Z,1003.14
2023-05-04T00:37:12.670Z,1003.15
2023-05-04T00:38:12.670Z,1003.15
2023-05-04T00:39:12.672Z,1003.14
2023-05-04T00:40:12.662Z,1003.15
2023-05-04T00:41:12.689Z,1003.15
2023-05-04T00:42:12.649Z,1003.14
2023-05-04T00:43:12.646Z,1003.16
2023-05-04T00:44:12.634Z,1003.16
2023-05-04T00:45:12.643Z,1003.14
2023-05-04T00:46:12.634Z,1003.14
2023-05-04T00:47:12.669Z,1003.13
2023-05-04T00:48:12.663Z,1003.13
2023-05-04T00:49:12.595Z,1003.13
2023-05-04T00:50:12.592Z,1003.12
2023-05-04T00:51:12.587Z,1003.12
2023-05-04T00:52:12.590Z,1003.10
2023-05-04T00:53:12.639Z,1003.07
2023-05-04T00:54:12.576Z,1003.06
2023-05-04T00:55:12.557Z,1003.05
2023-05-04T00:56:12.551Z,1003.03
2023-05-04T00:57:12.548Z,1003.03
2023-05-04T00:58:12.529Z,1003.01
2023-05-04T00:59:12.949Z,1003.01
2023-05-04T01:00:12.514Z,1003.01
2023-05-04T01:01:12.570Z,1003.01
2023-05-04T01:02:12.510Z,1003.01
2023-05-04T01:03:12.615Z,1003.00
2023-05-04T01:04:12.609Z,1002.99
2023-05-04T01:05:12.565Z,1002.98
2023-05-04T01:06:12.494Z,1002.99
2023-05-04T01:07:12.471Z,1002.98
2023-05-04T01:08:12.454Z,1002.98
2023-05-04T01:09:12.457Z,1002.97
2023-05-04T01:10:12.428Z,1002.97
2023-05-04T01:11:12.491Z,1002.96
2023-05-04T01:12:12.446Z,1002.98
2023-05-04T01:13:12.509Z,1002.98
2023-05-04T01:14:12.417Z,1002.99
2023-05-04T01:15:12.404Z,1002.98
2023-05-04T01:16:12.420Z,1002.97
2023-05-04T01:17:12.590Z,1002.97
2023-05-04T01:18:12.419Z,1002.95
2023-05-04T01:19:12.379Z,1002.94
2023-05-04T01:20:12.396Z,1002.94
2023-05-04T01:21:12.371Z,1002.95
2023-05-04T01:22:12.352Z,1002.96
2023-05-04T01:23:12.429Z,1002.98
2023-05-04T01:24:12.364Z,1003.00
2023-05-04T01:25:12.332Z,1002.99
2023-05-04T01:26:12.323Z,1002.98
2023-05-04T01:27:12.314Z,1002.98
2023-05-04T01:28:12.300Z,1002.98
2023-05-04T01:29:12.352Z,1002.96
2023-05-04T01:30:12.293Z,1002.96
2023-05-04T01:31:12.341Z,1002.98
2023-05-04T01:32:12.277Z,1002.97
2023-05-04T01:33:12.371Z,1002.97
2023-05-04T01:34:12.286Z,1002.98
2023-05-04T01:35:12.301Z,1002.98
2023-05-04T01:36:12.256Z,1002.98
2023-05-04T01:37:12.261Z,1002.97
2023-05-04T01:38:12.242Z,1002.95
2023-05-04T01:39:12.233Z,1002.95
2023-05-04T01:40:12.226Z,1002.94
2023-05-04T01:41:12.249Z,1002.93
2023-05-04T01:42:12.228Z,1002.94
2023-05-04T01:43:12.197Z,1002.94
2023-05-04T01:44:12.180Z,1002.97
2023-05-04T01:45:12.184Z,1002.97
2023-05-04T01:46:12.230Z,1002.98
2023-05-04T01:47:12.212Z,1002.98
2023-05-04T01:48:12.156Z,1003.00
2023-05-04T01:49:12.153Z,1003.01
2023-05-04T01:50:12.169Z,1003.03
2023-05-04T01:51:12.155Z,1003.03
2023-05-04T01:52:12.136Z,1003.04
2023-05-04T01:53:12.169Z,1003.04
2023-05-04T01:54:12.141Z,1003.04
2023-05-04T01:55:12.117Z,1003.04
2023-05-04T01:56:12.105Z,1003.04
2023-05-04T01:57:12.088Z,1003.05
2023-05-04T01:58:12.129Z,1003.05
2023-05-04T01:59:12.146Z,1003.05
2023-05-04T02:00:12.062Z,1003.05
2023-05-04T02:01:12.112Z,1003.07
2023-05-04T02:02:12.045Z,1003.07
2023-05-04T02:03:12.136Z,1003.06
2023-05-04T02:04:12.086Z,1003.06
2023-05-04T02:05:12.509Z,1003.05
2023-05-04T02:06:12.034Z,1003.04
2023-05-04T02:07:12.041Z,1003.03
2023-05-04T02:08:12.015Z,1003.02
2023-05-04T02:09:12.015Z,1003.01
2023-05-04T02:10:12.015Z,1002.99
2023-05-04T02:11:12.036Z,1002.98
2023-05-04T02:12:11.988Z,1002.97
2023-05-04T02:13:12.148Z,1002.95
2023-05-04T02:14:11.972Z,1002.96
2023-05-04T02:15:11.967Z,1002.96
2023-05-04T02:16:11.990Z,1002.96
2023-05-04T02:17:12.028Z,1002.96
2023-05-04T02:18:12.183Z,1002.96
2023-05-04T02:19:11.942Z,1002.95
2023-05-04T02:20:11.951Z,1002.95
2023-05-04T02:21:11.940Z,1002.95
2023-05-04T02:22:11.913Z,1002.94
2023-05-04T02:23:11.945Z,1002.93
2023-05-04T02:24:11.906Z,1002.93
2023-05-04T02:25:11.889Z,1002.91
2023-05-04T02:26:11.887Z,1002.90
2023-05-04T02:27:11.876Z,1002.90
2023-05-04T02:28:11.892Z,1002.90
2023-05-04T02:29:11.955Z,1002.92
2023-05-04T02:30:11.879Z,1002.92
2023-05-04T02:31:11.921Z,1002.91
2023-05-04T02:32:11.862Z,1002.91
2023-05-04T02:33:11.860Z,1002.89
2023-05-04T02:34:11.823Z,1002.87
2023-05-04T02:35:11.883Z,1002.85
2023-05-04T02:36:11.821Z,1002.85
2023-05-04T02:37:11.813Z,1002.84
2023-05-04T02:38:11.800Z,1002.84
2023-05-04T02:39:11.831Z,1002.84
2023-05-04T02:40:11.790Z,1002.84
2023-05-04T02:41:11.830Z,1002.85
2023-05-04T02:42:11.776Z,1002.84
2023-05-04T02:43:11.778Z,1002.84
2023-05-04T02:44:11.744Z,1002.84
2023-05-04T02:45:11.772Z,1002.84
2023-05-04T02:46:11.852Z,1002.85
2023-05-04T02:47:11.778Z,1002.85
2023-05-04T02:48:11.746Z,1002.86
2023-05-04T02:49:11.739Z,1002.87
2023-05-04T02:50:11.753Z,1002.89
2023-05-04T02:51:11.695Z,1002.89
2023-05-04T02:52:11.713Z,1002.90
2023-05-04T02:53:11.766Z,1002.89
2023-05-04T02:54:11.690Z,1002.90
2023-05-04T02:55:11.682Z,1002.90
2023-05-04T02:56:11.677Z,1002.89
2023-05-04T02:57:11.672Z,1002.89
2023-05-04T02:58:11.660Z,1002.90
2023-05-04T02:59:11.696Z,1002.88
2023-05-04T03:00:11.654Z,1002.90
2023-05-04T03:01:11.694Z,1002.88
2023-05-04T03:02:11.628Z,1002.89
2023-05-04T03:03:11.620Z,1002.88
2023-05-04T03:04:11.658Z,1002.87
2023-05-04T03:05:11.673Z,1002.87
2023-05-04T03:06:11.608Z,1002.87
2023-05-04T03:07:11.594Z,1002.86
2023-05-04T03:08:11.602Z,1002.85
2023-05-04T03:09:11.577Z,1002.86
2023-05-04T03:10:11.578Z,1002.86
2023-05-04T03:11:12.091Z,1002.85
2023-05-04T03:12:11.588Z,1002.85
2023-05-04T03:13:11.669Z,1002.85
2023-05-04T03:14:11.576Z,1002.84
2023-05-04T03:15:11.543Z,1002.84
2023-05-04T03:16:11.537Z,1002.84
2023-05-04T03:17:11.560Z,1002.85
2023-05-04T03:18:11.572Z,1002.85
2023-05-04T03:19:11.537Z,1002.84
2023-05-04T03:20:11.504Z,1002.83
2023-05-04T03:21:11.505Z,1002.82
2023-05-04T03:22:11.481Z,1002.82
2023-05-04T03:23:11.540Z,1002.82
2023-05-04T03:24:11.482Z,1002.82
2023-05-04T03:25:11.489Z,1002.82
2023-05-04T03:26:11.483Z,1002.82
2023-05-04T03:27:11.468Z,1002.82
2023-05-04T03:28:11.438Z,1002.82
2023-05-04T03:29:11.517Z,1002.81
2023-05-04T03:30:11.418Z,1002.81
2023-05-04T03:31:11.433Z,1002.82
2023-05-04T03:32:11.471Z,1002.81
2023-05-04T03:33:11.547Z,1002.80
2023-05-04T03:34:11.430Z,1002.80
2023-05-04T03:35:11.430Z,1002.80
2023-05-04T03:36:11.408Z,1002.79
2023-05-04T03:37:11.406Z,1002.78
2023-05-04T03:38:11.386Z,1002.77
2023-05-04T03:39:11.361Z,1002.77
2023-05-04T03:40:11.364Z,1002.77
2023-05-04T03:41:11.413Z,1002.76
2023-05-04T03:42:11.332Z,1002.78
2023-05-04T03:43:11.339Z,1002.78
2023-05-04T03:44:11.326Z,1002.77
2023-05-04T03:45:11.330Z,1002.76
2023-05-04T03:46:11.398Z,1002.74
2023-05-04T03:47:11.355Z,1002.74
2023-05-04T03:48:11.381Z,1002.74
2023-05-04T03:49:11.293Z,1002.74
2023-05-04T03:50:11.298Z,1002.75
2023-05-04T03:51:11.305Z,1002.74
2023-05-04T03:52:11.329Z,1002.72
2023-05-04T03:53:11.328Z,1002.71
2023-05-04T03:54:11.250Z,1002.69
2023-05-04T03:55:11.250Z,1002.70
2023-05-04T03:56:11.250Z,1002.70
2023-05-04T03:57:11.254Z,1002.69
2023-05-04T03:58:11.234Z,1002.69
2023-05-04T03:59:11.267Z,1002.68
2023-05-04T04:00:11.224Z,1002.68
2023-05-04T04:01:11.221Z,1002.68
2023-05-04T04:02:11.241Z,1002.68
2023-05-04T04:03:11.358Z,1002.69
2023-05-04T04:04:11.185Z,1002.69
2023-05-04T04:05:11.219Z,1002.69
2023-05-04T04:06:11.177Z,1002.71
2023-05-04T04:07:11.170Z,1002.71
2023-05-04T04:08:11.247Z,1002.71
2023-05-04T04:09:11.149Z,1002.71
2023-05-04T04:10:11.152Z,1002.71
2023-05-04T04:11:11.546Z,1002.72
2023-05-04T04:12:11.144Z,1002.71
2023-05-04T04:13:11.171Z,1002.72
2023-05-04T04:14:11.149Z,1002.73
2023-05-04T04:15:11.115Z,1002.73
2023-05-04T04:16:11.120Z,1002.74
2023-05-04T04:17:11.142Z,1002.73
2023-05-04T04:18:11.090Z,1002.73
2023-05-04T04:19:11.073Z,1002.71
2023-05-04T04:20:11.070Z,1002.71
2023-05-04T04:21:11.086Z,1002.69
2023-05-04T04:22:11.055Z,1002.68
2023-05-04T04:23:11.097Z,1002.69
2023-05-04T04:24:11.058Z,1002.69
2023-05-04T04:25:11.079Z,1002.67
2023-05-04T04:26:11.040Z,1002.68
2023-05-04T04:27:11.030Z,1002.66
2023-05-04T04:28:11.035Z,1002.66
2023-05-04T04:29:11.040Z,1002.64
2023-05-04T04:30:11.014Z,1002.63
2023-05-04T04:31:11.012Z,1002.62
2023-05-04T04:32:10.969Z,1002.61
2023-05-04T04:33:11.017Z,1002.61
2023-05-04T04:34:10.975Z,1002.60
2023-05-04T04:35:11.006Z,1002.60
2023-05-04T04:36:10.964Z,1002.59
2023-05-04T04:37:10.951Z,1002.59
2023-05-04T04:38:10.958Z,1002.57
2023-05-04T04:39:11.001Z,1002.58
2023-05-04T04:40:10.962Z,1002.58
2023-05-04T04:41:11.002Z,1002.58
2023-05-04T04:42:10.940Z,1002.59
2023-05-04T04:43:10.904Z,1002.61
2023-05-04T04:44:10.914Z,1002.58
2023-05-04T04:45:10.885Z,1002.59
2023-05-04T04:46:10.905Z,1002.57
2023-05-04T04:47:10.920Z,1002.56
2023-05-04T04:48:11.001Z,1002.57
2023-05-04T04:49:10.854Z,1002.55
2023-05-04T04:50:10.853Z,1002.56
2023-05-04T04:51:10.830Z,1002.57
2023-05-04T04:52:12.210Z,1002.57
2023-05-04T04:53:10.871Z,1002.59
2023-05-04T04:54:10.816Z,1002.61
2023-05-04T04:55:10.811Z,1002.61
2023-05-04T04:56:10.825Z,1002.62
2023-05-04T04:57:10.805Z,1002.62
2023-05-04T04:58:10.809Z,1002.61
2023-05-04T04:59:10.837Z,1002.62
2023-05-04T05:00:10.797Z,1002.62
2023-05-04T05:01:10.791Z,1002.62
2023-05-04T05:02:10.783Z,1002.62
2023-05-04T05:03:10.810Z,1002.61
2023-05-04T05:04:10.802Z,1002.61
2023-05-04T05:05:10.811Z,1002.61
2023-05-04T05:06:10.729Z,1002.60
2023-05-04T05:07:10.761Z,1002.60
2023-05-04T05:08:10.710Z,1002.60
2023-05-04T05:09:10.711Z,1002.61
2023-05-04T05:10:10.712Z,1002.62
2023-05-04T05:11:10.752Z,1002.64
2023-05-04T05:12:10.711Z,1002.65
2023-05-04T05:13:10.721Z,1002.67
2023-05-04T05:14:10.685Z,1002.66
2023-05-04T05:15:10.702Z,1002.65
2023-05-04T05:16:10.735Z,1002.65
2023-05-04T05:17:10.879Z,1002.65
2023-05-04T05:18:10.711Z,1002.65
2023-05-04T05:19:10.663Z,1002.63
2023-05-04T05:20:10.664Z,1002.63
2023-05-04T05:21:10.618Z,1002.64
2023-05-04T05:22:10.607Z,1002.62
2023-05-04T05:23:10.660Z,1002.63
2023-05-04T05:24:10.630Z,1002.62
2023-05-04T05:25:10.603Z,1002.61
2023-05-04T05:26:10.591Z,1002.61
2023-05-04T05:27:10.584Z,1002.61
2023-05-04T05:28:10.585Z,1002.62
2023-05-04T05:29:10.626Z,1002.61
2023-05-04T05:30:10.564Z,1002.61
2023-05-04T05:31:10.636Z,1002.61
2023-05-04T05:32:10.541Z,1002.63
2023-05-04T05:33:10.623Z,1002.61
2023-05-04T05:34:10.521Z,1002.61
2023-05-04T05:35:10.597Z,1002.59
2023-05-04T05:36:10.540Z,1002.59
2023-05-04T05:37:10.526Z,1002.57
2023-05-04T05:38:10.523Z,1002.58
2023-05-04T05:39:10.530Z,1002.59
2023-05-04T05:40:10.516Z,1002.59
2023-05-04T05:41:10.550Z,1002.58
2023-05-04T05:42:10.460Z,1002.61
2023-05-04T05:43:10.473Z,1002.62
2023-05-04T05:44:12.875Z,1002.63
2023-05-04T05:45:10.479Z,1002.63
2023-05-04T05:46:10.499Z,1002.63
2023-05-04T05:47:10.553Z,1002.64
2023-05-04T05:48:10.451Z,1002.63
2023-05-04T05:49:10.424Z,1002.62
2023-05-04T05:50:10.438Z,1002.61
2023-05-04T05:51:10.400Z,1002.59
2023-05-04T05:52:10.405Z,1002.58
2023-05-04T05:53:10.494Z,1002.57
2023-05-04T05:54:10.387Z,1002.56
2023-05-04T05:55:10.439Z,1002.58
2023-05-04T05:56:10.406Z,1002.57
2023-05-04T05:57:10.376Z,1002.57
2023-05-04T05:58:10.369Z,1002.58
2023-05-04T05:59:10.408Z,1002.59
2023-05-04T06:00:10.361Z,1002.60
2023-05-04T06:01:10.399Z,1002.60
2023-05-04T06:02:10.408Z,1002.61
2023-05-04T06:03:10.408Z,1002.61
2023-05-04T06:04:10.528Z,1002.62
2023-05-04T06:05:10.346Z,1002.62
2023-05-04T06:06:10.291Z,1002.60
2023-05-04T06:07:10.322Z,1002.59
2023-05-04T06:08:10.298Z,1002.58
2023-05-04T06:09:10.293Z,1002.55
2023-05-04T06:10:10.305Z,1002.56
2023-05-04T06:11:10.320Z,1002.56
2023-05-04T06:12:10.286Z,1002.57
2023-05-04T06:13:10.311Z,1002.59
2023-05-04T06:14:10.232Z,1002.60
2023-05-04T06:15:10.246Z,1002.60
2023-05-04T06:16:10.271Z,1002.62
2023-05-04T06:17:10.554Z,1002.61
2023-05-04T06:18:10.306Z,1002.62
2023-05-04T06:19:10.204Z,1002.60
2023-05-04T06:20:10.213Z,1002.61
2023-05-04T06:21:10.186Z,1002.61
2023-05-04T06:22:10.193Z,1002.61
2023-05-04T06:23:10.234Z,1002.62
2023-05-04T06:24:10.196Z,1002.61
2023-05-04T06:25:10.176Z,1002.61
2023-05-04T06:26:10.162Z,1002.59
2023-05-04T06:27:10.152Z,1002.60
2023-05-04T06:28:10.150Z,1002.59
2023-05-04T06:29:10.163Z,1002.58
2023-05-04T06:30:10.130Z,1002.57
2023-05-04T06:31:10.211Z,1002.58
2023-05-04T06:32:10.162Z,1002.57
2023-05-04T06:33:10.139Z,1002.57
2023-05-04T06:34:10.108Z,1002.58
2023-05-04T06:35:10.180Z,1002.57
2023-05-04T06:36:10.072Z,1002.57
2023-05-04T06:37:10.067Z,1002.56
2023-05-04T06:38:10.072Z,1002.55
2023-05-04T06:39:10.089Z,1002.54
2023-05-04T06:40:10.192Z,1002.54
2023-05-04T06:41:10.089Z,1002.54
2023-05-04T06:42:10.044Z,1002.54
2023-05-04T06:43:10.028Z,1002.53
2023-05-04T06:44:10.026Z,1002.52
2023-05-04T06:45:10.036Z,1002.52
2023-05-04T06:46:10.043Z,1002.51
2023-05-04T06:47:10.052Z,1002.50
2023-05-04T06:48:10.056Z,1002.51
2023-05-04T06:49:09.997Z,1002.49
2023-05-04T06:50:10.010Z,1002.51
2023-05-04T06:51:09.973Z,1002.50
2023-05-04T06:52:10.023Z,1002.51
2023-05-04T06:53:10.008Z,1002.51
2023-05-04T06:54:09.963Z,1002.51
2023-05-04T06:55:09.959Z,1002.52
2023-05-04T06:56:09.942Z,1002.53
2023-05-04T06:57:09.920Z,1002.53
2023-05-04T06:58:09.919Z,1002.54
2023-05-04T06:59:10.007Z,1002.55
2023-05-04T07:00:09.913Z,1002.54
2023-05-04T07:01:09.964Z,1002.54
2023-05-04T07:02:09.915Z,1002.51
2023-05-04T07:03:09.952Z,1002.50
2023-05-04T07:04:10.000Z,1002.48
2023-05-04T07:05:09.922Z,1002.46
2023-05-04T07:06:09.880Z,1002.45
2023-05-04T07:07:09.871Z,1002.43
2023-05-04T07:08:09.855Z,1002.42
2023-05-04T07:09:09.857Z,1002.43
2023-05-04T07:10:09.830Z,1002.43
2023-05-04T07:11:09.891Z,1002.42
2023-05-04T07:12:09.820Z,1002.41
2023-05-04T07:13:09.917Z,1002.40
2023-05-04T07:14:10.528Z,1002.39
2023-05-04T07:15:09.784Z,1002.39
2023-05-04T07:16:09.852Z,1002.37
2023-05-04T07:17:09.848Z,1002.37
2023-05-04T07:18:09.807Z,1002.36
2023-05-04T07:19:09.751Z,1002.35
2023-05-04T07:20:09.781Z,1002.36
2023-05-04T07:21:25.955Z,1002.35
2023-05-04T07:22:11.023Z,1002.34
2023-05-04T07:23:09.721Z,1002.31
2023-05-04T07:24:09.721Z,1002.29
2023-05-04T07:25:09.734Z,1002.28
2023-05-04T07:26:09.725Z,1002.26
2023-05-04T07:27:09.698Z,1002.26
2023-05-04T07:28:09.720Z,1002.27
2023-05-04T07:29:09.748Z,1002.27
2023-05-04T07:30:09.676Z,1002.28
2023-05-04T07:31:09.678Z,1002.29
2023-05-04T07:32:09.699Z,1002.29
2023-05-04T07:33:09.734Z,1002.28
2023-05-04T07:34:09.690Z,1002.28
2023-05-04T07:35:09.650Z,1002.27
2023-05-04T07:36:09.681Z,1002.28
2023-05-04T07:37:09.652Z,1002.27
2023-05-04T07:38:09.616Z,1002.26
2023-05-04T07:39:09.609Z,1002.24
2023-05-04T07:40:09.646Z,1002.21
2023-05-04T07:41:09.587Z,1002.20
2023-05-04T07:42:09.580Z,1002.17
2023-05-04T07:43:09.582Z,1002.15
2023-05-04T07:44:09.581Z,1002.13
2023-05-04T07:45:09.546Z,1002.11
2023-05-04T07:46:09.627Z,1002.10
2023-05-04T07:47:09.584Z,1002.11
2023-05-04T07:48:09.572Z,1002.10
2023-05-04T07:49:09.537Z,1002.09
2023-05-04T07:50:09.542Z,1002.09
2023-05-04T07:51:09.523Z,1002.07
2023-05-04T07:52:09.559Z,1002.07
2023-05-04T07:53:09.538Z,1002.04
2023-05-04T07:54:09.514Z,1002.04
2023-05-04T07:55:09.502Z,1002.03
2023-05-04T07:56:09.489Z,1002.02
2023-05-04T07:57:09.467Z,1002.02
2023-05-04T07:58:09.539Z,1002.00
2023-05-04T07:59:09.469Z,1001.98
2023-05-04T08:00:09.452Z,1001.98
2023-05-04T08:01:09.441Z,1001.98
2023-05-04T08:02:09.511Z,1001.97
2023-05-04T08:03:09.467Z,1001.97
2023-05-04T08:04:09.541Z,1001.96
2023-05-04T08:05:09.417Z,1001.96
2023-05-04T08:06:09.419Z,1001.97
2023-05-04T08:07:09.423Z,1001.97
2023-05-04T08:08:09.402Z,1001.98
2023-05-04T08:09:09.410Z,1001.98
2023-05-04T08:10:09.411Z,1001.97
2023-05-04T08:11:20.114Z,1001.98
2023-05-04T08:12:10.372Z,1001.98
2023-05-04T08:13:09.446Z,1001.97
2023-05-04T08:14:09.383Z,1001.98
2023-05-04T08:15:09.341Z,1001.98
2023-05-04T08:16:09.415Z,1001.97
2023-05-04T08:17:09.329Z,1001.97
2023-05-04T08:18:09.330Z,1001.96
2023-05-04T08:19:09.321Z,1001.95
2023-05-04T08:20:09.311Z,1001.95
2023-05-04T08:21:09.316Z,1001.95
2023-05-04T08:22:09.341Z,1001.94
2023-05-04T08:23:09.293Z,1001.93
2023-05-04T08:24:09.305Z,1001.93
2023-05-04T08:25:09.285Z,1001.92
2023-05-04T08:26:09.277Z,1001.89
2023-05-04T08:27:09.871Z,1001.87
2023-05-04T08:28:09.499Z,1001.84
2023-05-04T08:29:09.254Z,1001.82
2023-05-04T08:30:09.231Z,1001.79
2023-05-04T08:31:09.262Z,1001.77
2023-05-04T08:32:09.263Z,1001.75
2023-05-04T08:33:09.297Z,1001.74
2023-05-04T08:34:09.266Z,1001.72
2023-05-04T08:35:09.182Z,1001.70
2023-05-04T08:36:09.208Z,1001.69
2023-05-04T08:37:09.189Z,1001.69
2023-05-04T08:38:09.205Z,1001.68
2023-05-04T08:39:09.181Z,1001.68
2023-05-04T08:40:09.233Z,1001.67
2023-05-04T08:41:09.190Z,1001.66
2023-05-04T08:42:09.137Z,1001.65
2023-05-04T08:43:09.142Z,1001.62
2023-05-04T08:44:09.136Z,1001.62
2023-05-04T08:45:09.150Z,1001.61
2023-05-04T08:46:09.197Z,1001.60
2023-05-04T08:47:09.103Z,1001.61
2023-05-04T08:48:09.169Z,1001.60
2023-05-04T08:49:09.086Z,1001.63
2023-05-04T08:50:09.106Z,1001.61
2023-05-04T08:51:09.092Z,1001.61
2023-05-04T08:52:09.175Z,1001.61
2023-05-04T08:53:09.058Z,1001.59
2023-05-04T08:54:09.054Z,1001.58
2023-05-04T08:55:09.065Z,1001.57
2023-05-04T08:56:09.103Z,1001.57
2023-05-04T08:57:09.156Z,1001.56
2023-05-04T08:58:09.102Z,1001.56
2023-05-04T08:59:09.015Z,1001.56
2023-05-04T09:00:09.016Z,1001.56
2023-05-04T09:01:09.084Z,1001.54
2023-05-04T09:02:09.022Z,1001.51
2023-05-04T09:03:09.042Z,1001.49
2023-05-04T09:04:09.050Z,1001.48
2023-05-04T09:05:08.993Z,1001.46
2023-05-04T09:06:08.984Z,1001.45
2023-05-04T09:07:08.994Z,1001.46
2023-05-04T09:08:08.956Z,1001.46
2023-05-04T09:09:08.951Z,1001.44
2023-05-04T09:10:08.973Z,1001.43
2023-05-04T09:11:08.943Z,1001.41
2023-05-04T09:12:08.936Z,1001.39
2023-05-04T09:13:08.979Z,1001.38
2023-05-04T09:14:08.927Z,1001.34
2023-05-04T09:15:08.933Z,1001.31
2023-05-04T09:16:08.946Z,1001.28
2023-05-04T09:17:08.987Z,1001.30
2023-05-04T09:18:08.933Z,1001.29
2023-05-04T09:19:08.875Z,1001.28
2023-05-04T09:20:08.854Z,1001.28
2023-05-04T09:21:08.852Z,1001.25
2023-05-04T09:22:08.892Z,1001.23
2023-05-04T09:23:08.869Z,1001.23
2023-05-04T09:24:08.825Z,1001.21
2023-05-04T09:25:08.812Z,1001.20
2023-05-04T09:26:08.830Z,1001.19
2023-05-04T09:27:08.826Z,1001.17
2023-05-04T09:28:08.866Z,1001.14
2023-05-04T09:29:08.793Z,1001.12
2023-05-04T09:30:08.803Z,1001.11
2023-05-04T09:31:08.865Z,1001.09
2023-05-04T09:32:08.807Z,1001.06
2023-05-04T09:33:08.754Z,1001.06
2023-05-04T09:34:09.241Z,1001.06
2023-05-04T09:35:10.731Z,1001.06
2023-05-04T09:36:08.740Z,1001.05
2023-05-04T09:37:08.751Z,1001.06
2023-05-04T09:38:08.743Z,1001.05
2023-05-04T09:39:11.125Z,1001.03
2023-05-04T09:40:08.806Z,1001.01
2023-05-04T09:41:08.710Z,1001.00
2023-05-04T09:42:08.715Z,1001.00
2023-05-04T09:43:08.734Z,1000.98
2023-05-04T09:44:08.714Z,1000.97
2023-05-04T09:45:08.834Z,1000.95
2023-05-04T09:46:08.731Z,1000.93
2023-05-04T09:47:08.670Z,1000.90
2023-05-04T09:48:08.661Z,1000.88
2023-05-04T09:49:08.652Z,1000.87
2023-05-04T09:50:08.651Z,1000.86
2023-05-04T09:51:08.627Z,1000.85
2023-05-04T09:52:08.702Z,1000.85
2023-05-04T09:53:08.608Z,1000.82
2023-05-04T09:54:08.592Z,1000.84
2023-05-04T09:55:08.598Z,1000.81
2023-05-04T09:56:08.574Z,1000.77
2023-05-04T09:57:08.592Z,1000.77
2023-05-04T09:58:08.617Z,1000.79
2023-05-04T09:59:08.602Z,1000.81
2023-05-04T10:00:08.568Z,1000.79
2023-05-04T10:01:08.562Z,1000.79
2023-05-04T10:02:18.655Z,1000.78
2023-05-04T10:03:09.621Z,1000.77
2023-05-04T10:04:08.526Z,1000.76
2023-05-04T10:05:08.623Z,1000.75
2023-05-04T10:06:08.523Z,1000.74
2023-05-04T10:07:08.520Z,1000.72
2023-05-04T10:08:08.492Z,1000.71
2023-05-04T10:09:08.537Z,1000.68
2023-05-04T10:10:08.495Z,1000.68
2023-05-04T10:11:08.465Z,1000.65
2023-05-04T10:12:08.506Z,1000.64
2023-05-04T10:13:08.707Z,1000.63
2023-05-04T10:14:08.478Z,1000.61
2023-05-04T10:15:08.500Z,1000.60
2023-05-04T10:16:08.489Z,1000.57
2023-05-04T10:17:08.439Z,1000.54
2023-05-04T10:18:08.431Z,1000.51
2023-05-04T10:19:08.397Z,1000.47
2023-05-04T10:20:08.400Z,1000.48
2023-05-04T10:21:09.472Z,1000.46
2023-05-04T10:22:08.397Z,1000.46
2023-05-04T10:23:08.380Z,1000.47
2023-05-04T10:24:08.377Z,1000.47
2023-05-04T10:25:08.401Z,1000.47
2023-05-04T10:26:08.359Z,1000.49
2023-05-04T10:27:08.430Z,1000.49
2023-05-04T10:28:08.337Z,1000.48
2023-05-04T10:29:08.376Z,1000.44
2023-05-04T10:30:08.326Z,1000.44
2023-05-04T10:31:08.363Z,1000.43
2023-05-04T10:32:08.357Z,1000.39
2023-05-04T10:33:08.388Z,1000.39
2023-05-04T10:34:08.306Z,1000.38
2023-05-04T10:35:08.400Z,1000.37
2023-05-04T10:36:08.292Z,1000.36
2023-05-04T10:37:08.312Z,1000.36
2023-05-04T10:38:08.285Z,1000.36
2023-05-04T10:39:08.530Z,1000.37
2023-05-04T10:40:08.281Z,1000.35
2023-05-04T10:41:08.252Z,1000.35
2023-05-04T10:42:08.240Z,1000.36
2023-05-04T10:43:08.291Z,1000.36
2023-05-04T10:44:08.239Z,1000.33
2023-05-04T10:45:08.300Z,1000.31
2023-05-04T10:46:08.258Z,1000.23
2023-05-04T10:47:08.275Z,1000.23
2023-05-04T10:48:08.276Z,1000.21
2023-05-04T10:49:08.192Z,1000.21
2023-05-04T10:50:08.209Z,1000.20
2023-05-04T10:51:08.239Z,1000.21
2023-05-04T10:52:08.180Z,1000.23
2023-05-04T10:53:08.171Z,1000.17
2023-05-04T10:54:08.151Z,1000.12
2023-05-04T10:55:08.170Z,1000.16
2023-05-04T10:56:08.141Z,1000.09
2023-05-04T10:57:08.192Z,1000.11
2023-05-04T10:58:08.131Z,1000.06
2023-05-04T10:59:08.202Z,1000.05
2023-05-04T11:00:08.105Z,1000.01
2023-05-04T11:01:08.153Z,999.99
2023-05-04T11:02:08.223Z,999.97
2023-05-04T11:03:08.220Z,999.93
2023-05-04T11:04:08.093Z,999.96
2023-05-04T11:05:08.498Z,999.96
2023-05-04T11:06:08.053Z,999.85
2023-05-04T11:07:08.174Z,999.84
2023-05-04T11:08:08.081Z,999.82
2023-05-04T11:09:08.132Z,999.78
2023-05-04T11:10:08.056Z,999.76
2023-05-04T11:11:08.028Z,999.74
2023-05-04T11:12:08.047Z,999.74
2023-05-04T11:13:08.160Z,999.72
2023-05-04T11:14:08.006Z,999.72
2023-05-04T11:15:08.292Z,999.73
2023-05-04T11:16:08.108Z,999.71
2023-05-04T11:17:26.114Z,999.74
2023-05-04T11:18:09.065Z,999.71
2023-05-04T11:19:09.089Z,999.73
2023-05-04T11:20:08.023Z,999.72
2023-05-04T11:21:08.068Z,999.70
2023-05-04T11:22:08.061Z,999.71
2023-05-04T11:23:07.972Z,999.64
2023-05-04T11:24:08.046Z,999.64
2023-05-04T11:25:07.916Z,999.62
2023-05-04T11:26:08.029Z,999.60
2023-05-04T11:27:08.047Z,999.55
2023-05-04T11:28:07.941Z,999.59
2023-05-04T11:29:07.947Z,999.53
2023-05-04T11:30:07.939Z,999.50
2023-05-04T11:31:07.905Z,999.51
2023-05-04T11:32:07.926Z,999.47
2023-05-04T11:33:08.026Z,999.46
2023-05-04T11:34:07.859Z,999.48
2023-05-04T11:35:08.107Z,999.47
2023-05-04T11:36:07.921Z,999.47
2023-05-04T11:37:07.925Z,999.46
2023-05-04T11:38:07.912Z,999.41
2023-05-04T11:39:08.026Z,999.40
2023-05-04T11:40:07.816Z,999.41
2023-05-04T11:41:07.837Z,999.42
2023-05-04T11:42:07.835Z,999.43
2023-05-04T11:43:07.824Z,999.43
2023-05-04T11:44:10.931Z,999.43
2023-05-04T11:45:07.893Z,999.39
2023-05-04T11:46:07.982Z,999.35
2023-05-04T11:47:07.784Z,999.33
2023-05-04T11:48:07.845Z,999.29
2023-05-04T11:49:07.874Z,999.27
2023-05-04T11:50:07.780Z,999.27
2023-05-04T11:51:07.803Z,999.25
2023-05-04T11:52:07.806Z,999.29
2023-05-04T11:53:07.765Z,999.29
2023-05-04T11:54:07.739Z,999.29
2023-05-04T11:55:08.022Z,999.23
2023-05-04T11:56:07.773Z,999.27
2023-05-04T11:57:07.801Z,999.26
2023-05-04T11:58:07.743Z,999.23
2023-05-04T11:59:07.713Z,999.18
2023-05-04T12:00:07.706Z,999.16
2023-05-04T12:01:07.700Z,999.16
2023-05-04T12:02:07.688Z,999.15
2023-05-04T12:03:07.846Z,999.15
2023-05-04T12:04:07.800Z,999.14
2023-05-04T12:05:07.841Z,999.10
2023-05-04T12:06:07.666Z,999.10
2023-05-04T12:07:07.689Z,999.12